createdAt,value
2023-03-06T00:00:58.797Z,9.456874
2023-03-06T00:01:58.774Z,9.457008
2023-03-06T00:02:58.783Z,9.457086
2023-03-06T00:03:58.793Z,9.457146
2023-03-06T00:04:58.755Z,9.457198
2023-03-06T00:05:59.133Z,9.457038
2023-03-06T00:06:58.724Z,9.457109
2023-03-06T00:07:58.726Z,9.457071
2023-03-06T00:08:58.711Z,9.457227
2023-03-06T00:09:58.709Z,9.457181
2023-03-06T00:10:58.731Z,9.457013
2023-03-06T00:11:58.696Z,9.457152
2023-03-06T00:12:58.680Z,9.457146
2023-03-06T00:13:58.666Z,9.457196
2023-03-06T00:14:58.657Z,9.456989
2023-03-06T00:15:58.693Z,9.457201
2023-03-06T00:16:58.643Z,9.457370
2023-03-06T00:17:58.636Z,9.456554
2023-03-06T00:18:58.621Z,9.456786
2023-03-06T00:19:58.656Z,9.457261
2023-03-06T00:20:58.632Z,9.457099
2023-03-06T00:21:58.592Z,9.457084
2023-03-06T00:22:58.610Z,9.457363
2023-03-06T00:23:58.573Z,9.457294
2023-03-06T00:24:58.563Z,9.457532
2023-03-06T00:25:58.596Z,9.457447
2023-03-06T00:26:58.571Z,9.457680
2023-03-06T00:27:58.542Z,9.457076
2023-03-06T00:28:58.523Z,9.457256
2023-03-06T00:29:58.526Z,9.457249
2023-03-06T00:30:58.530Z,9.457170
2023-03-06T00:31:58.517Z,9.457149
2023-03-06T00:32:58.499Z,9.457561
2023-03-06T00:33:58.486Z,9.457583
2023-03-06T00:34:58.481Z,9.457609
2023-03-06T00:35:58.508Z,9.457824
2023-03-06T00:36:58.463Z,9.457779
2023-03-06T00:37:58.447Z,9.457310
2023-03-06T00:38:58.440Z,9.457739
2023-03-06T00:39:58.445Z,9.457823
2023-03-06T00:40:58.471Z,9.457150
2023-03-06T00:41:58.427Z,9.457366
2023-03-06T00:42:58.397Z,9.457283
2023-03-06T00:43:58.400Z,9.457250
2023-03-06T00:44:58.380Z,9.457316
2023-03-06T00:45:58.436Z,9.457266
2023-03-06T00:46:58.368Z,9.457122
2023-03-06T00:47:58.386Z,9.457131
2023-03-06T00:48:58.340Z,9.457217
2023-03-06T00:49:58.326Z,9.457198
2023-03-06T00:50:58.332Z,9.457191
2023-03-06T00:51:58.313Z,9.457315
2023-03-06T00:52:58.325Z,9.457083
2023-03-06T00:53:58.294Z,9.457117
2023-03-06T00:54:58.289Z,9.456981
2023-03-06T00:55:58.319Z,9.456705
2023-03-06T00:56:58.271Z,9.457767
2023-03-06T00:57:58.250Z,9.457991
2023-03-06T00:58:58.254Z,9.457663
2023-03-06T00:59:58.249Z,9.457444
2023-03-06T01:00:58.256Z,9.457874
2023-03-06T01:01:58.325Z,9.457874
2023-03-06T01:02:58.207Z,9.458149
2023-03-06T01:03:58.198Z,9.458029
2023-03-06T01:04:58.185Z,9.458071
2023-03-06T01:05:59.202Z,9.457975
2023-03-06T01:06:58.168Z,9.458249
2023-03-06T01:07:58.172Z,9.457888
2023-03-06T01:08:58.142Z,9.457628
2023-03-06T01:09:58.146Z,9.457238
2023-03-06T01:10:58.179Z,9.457487
2023-03-06T01:11:58.111Z,9.457597
2023-03-06T01:12:58.117Z,9.457739
2023-03-06T01:13:58.108Z,9.457746
2023-03-06T01:14:58.085Z,9.457857
2023-03-06T01:15:58.091Z,9.457635
2023-03-06T01:16:58.109Z,9.457501
2023-03-06T01:17:58.067Z,9.457336
2023-03-06T01:18:59.043Z,9.457556
2023-03-06T01:19:58.037Z,9.457570
2023-03-06T01:20:58.023Z,9.457389
2023-03-06T01:21:58.010Z,9.457427
2023-03-06T01:22:58.020Z,9.457533
2023-03-06T01:23:57.997Z,9.457631
2023-03-06T01:24:58.002Z,9.457451
2023-03-06T01:25:58.011Z,9.457713
2023-03-06T01:26:57.972Z,9.457491
2023-03-06T01:27:57.962Z,9.457482
2023-03-06T01:28:57.968Z,9.457531
2023-03-06T01:29:57.939Z,9.457483
2023-03-06T01:30:57.944Z,9.457695
2023-03-06T01:31:57.937Z,9.457598
2023-03-06T01:32:57.906Z,9.457607
2023-03-06T01:33:57.905Z,9.457608
2023-03-06T01:34:57.890Z,9.457152
2023-03-06T01:35:57.915Z,9.457418
2023-03-06T01:36:57.870Z,9.457261
2023-03-06T01:37:57.869Z,9.457049
2023-03-06T01:38:57.864Z,9.456717
2023-03-06T01:39:57.853Z,9.456507
2023-03-06T01:40:57.883Z,9.456686
2023-03-06T01:41:57.835Z,9.456979
2023-03-06T01:42:57.838Z,9.457059
2023-03-06T01:43:57.813Z,9.456840
2023-03-06T01:44:57.802Z,9.456450
2023-03-06T01:45:57.836Z,9.456201
2023-03-06T01:46:57.797Z,9.456765
2023-03-06T01:47:57.779Z,9.456950
2023-03-06T01:48:57.775Z,9.457143
2023-03-06T01:49:57.765Z,9.457354
2023-03-06T01:50:57.766Z,9.457317
2023-03-06T01:51:57.756Z,9.457085
2023-03-06T01:52:57.741Z,9.457118
2023-03-06T01:53:57.723Z,9.457092
2023-03-06T01:54:57.716Z,9.457206
2023-03-06T01:55:57.727Z,9.457257
2023-03-06T01:56:57.700Z,9.457201
2023-03-06T01:57:57.789Z,9.457121
2023-03-06T01:58:57.682Z,9.457300
2023-03-06T01:59:57.667Z,9.457231
2023-03-06T02:00:57.716Z,9.457129
2023-03-06T02:01:57.711Z,9.457161
2023-03-06T02:02:57.660Z,9.457150
2023-03-06T02:03:57.630Z,9.457095
2023-03-06T02:04:57.632Z,9.457075
2023-03-06T02:05:57.611Z,9.457334
2023-03-06T02:06:57.603Z,9.457404
2023-03-06T02:07:57.662Z,9.457327
2023-03-06T02:08:57.590Z,9.457428
2023-03-06T02:09:57.589Z,9.457221
2023-03-06T02:10:57.578Z,9.457468
2023-03-06T02:11:57.603Z,9.457286
2023-03-06T02:12:57.576Z,9.457326
2023-03-06T02:13:57.562Z,9.457346
2023-03-06T02:14:57.545Z,9.457252
2023-03-06T02:15:58.529Z,9.457323
2023-03-06T02:16:57.614Z,9.457290
2023-03-06T02:17:57.517Z,9.456960
2023-03-06T02:18:57.499Z,9.457122
2023-03-06T02:19:57.508Z,9.457170
2023-03-06T02:20:57.489Z,9.457468
2023-03-06T02:21:57.500Z,9.457426
2023-03-06T02:22:57.476Z,9.457419
2023-03-06T02:23:57.483Z,9.457508
2023-03-06T02:24:57.460Z,9.457228
2023-03-06T02:25:57.449Z,9.457273
2023-03-06T02:26:57.440Z,9.457335
2023-03-06T02:27:57.438Z,9.457387
2023-03-06T02:28:57.456Z,9.457387
2023-03-06T02:29:57.420Z,9.457410
2023-03-06T02:30:57.421Z,9.457339
2023-03-06T02:31:57.392Z,9.457260
2023-03-06T02:32:57.397Z,9.457204
2023-03-06T02:33:57.395Z,9.457112
2023-03-06T02:34:57.386Z,9.457077
2023-03-06T02:35:57.410Z,9.457151
2023-03-06T02:36:57.377Z,9.457149
2023-03-06T02:37:57.351Z,9.457200
2023-03-06T02:38:57.328Z,9.457079
2023-03-06T02:39:57.326Z,9.457337
2023-03-06T02:40:57.318Z,9.457382
2023-03-06T02:41:57.333Z,9.457184
2023-03-06T02:42:57.308Z,9.457108
2023-03-06T02:43:57.291Z,9.457204
2023-03-06T02:44:57.282Z,9.457318
2023-03-06T02:45:57.300Z,9.457304
2023-03-06T02:46:57.281Z,9.457294
2023-03-06T02:47:57.259Z,9.457314
2023-03-06T02:48:57.271Z,9.457155
2023-03-06T02:49:57.247Z,9.457351
2023-03-06T02:50:57.244Z,9.457284
2023-03-06T02:51:57.255Z,9.457319
2023-03-06T02:52:57.215Z,9.457314
2023-03-06T02:53:57.224Z,9.457346
2023-03-06T02:54:57.196Z,9.457212
2023-03-06T02:55:57.191Z,9.457130
2023-03-06T02:56:57.287Z,9.457343
2023-03-06T02:57:57.165Z,9.457273
2023-03-06T02:58:57.162Z,9.457384
2023-03-06T02:59:57.168Z,9.457333
2023-03-06T03:00:57.158Z,9.457256
2023-03-06T03:01:57.158Z,9.457190
2023-03-06T03:02:57.131Z,9.457095
2023-03-06T03:03:57.142Z,9.457324
2023-03-06T03:04:57.203Z,9.457303
2023-03-06T03:05:57.109Z,9.457083
2023-03-06T03:06:57.107Z,9.457099
2023-03-06T03:07:57.091Z,9.457187
2023-03-06T03:08:57.081Z,9.457364
2023-03-06T03:09:57.089Z,9.457401
2023-03-06T03:10:57.080Z,9.457280
2023-03-06T03:11:57.098Z,9.457230
2023-03-06T03:12:57.052Z,9.457295
2023-03-06T03:13:57.062Z,9.457302
2023-03-06T03:14:57.035Z,9.457340
2023-03-06T03:15:57.037Z,9.457290
2023-03-06T03:16:57.036Z,9.457448
2023-03-06T03:17:57.018Z,9.457307
2023-03-06T03:18:56.995Z,9.457175
2023-03-06T03:19:56.998Z,9.457391
2023-03-06T03:20:56.979Z,9.457105
2023-03-06T03:21:57.022Z,9.457161
2023-03-06T03:22:56.979Z,9.457142
2023-03-06T03:23:56.962Z,9.457157
2023-03-06T03:24:57.108Z,9.457114
2023-03-06T03:25:56.939Z,9.456949
2023-03-06T03:26:56.950Z,9.456951
2023-03-06T03:27:56.938Z,9.456890
2023-03-06T03:28:56.912Z,9.456525
2023-03-06T03:29:56.919Z,9.456489
2023-03-06T03:30:56.977Z,9.456889
2023-03-06T03:31:56.916Z,9.457259
2023-03-06T03:32:56.884Z,9.457350
2023-03-06T03:33:56.870Z,9.457417
2023-03-06T03:34:56.866Z,9.457345
2023-03-06T03:35:56.864Z,9.457287
2023-03-06T03:36:56.855Z,9.457269
2023-03-06T03:37:57.849Z,9.457287
2023-03-06T03:38:56.876Z,9.457301
2023-03-06T03:39:56.860Z,9.457056
2023-03-06T03:40:56.893Z,9.457398
2023-03-06T03:41:56.877Z,9.457340
2023-03-06T03:42:56.831Z,9.457337
2023-03-06T03:43:56.801Z,9.457363
2023-03-06T03:44:56.786Z,9.457424
2023-03-06T03:45:56.772Z,9.457272
2023-03-06T03:46:56.824Z,9.457327
2023-03-06T03:47:56.764Z,9.457204
2023-03-06T03:48:56.748Z,9.457334
2023-03-06T03:49:56.739Z,9.457357
2023-03-06T03:50:56.738Z,9.457230
2023-03-06T03:51:56.746Z,9.457259
2023-03-06T03:52:56.712Z,9.457346
2023-03-06T03:53:56.715Z,9.457295
2023-03-06T03:54:56.705Z,9.457377
2023-03-06T03:55:56.687Z,9.457272
2023-03-06T03:56:56.710Z,9.457296
2023-03-06T03:57:56.679Z,9.457468
2023-03-06T03:58:56.752Z,9.457498
2023-03-06T03:59:56.682Z,9.457408
2023-03-06T04:00:56.647Z,9.457397
2023-03-06T04:01:56.713Z,9.457391
2023-03-06T04:02:56.628Z,9.457169
2023-03-06T04:03:57.623Z,9.457117
2023-03-06T04:04:56.639Z,9.457161
2023-03-06T04:05:56.602Z,9.457181
2023-03-06T04:06:56.617Z,9.457398
2023-03-06T04:07:56.593Z,9.457336
2023-03-06T04:08:56.592Z,9.457314
2023-03-06T04:18:32.227Z,9.457211
2023-03-06T04:19:32.220Z,9.457091
2023-03-06T04:20:32.212Z,9.457081
2023-03-06T04:21:32.267Z,9.457336
2023-03-06T04:22:32.200Z,9.457373
2023-03-06T04:23:32.197Z,9.457488
2023-03-06T04:24:32.187Z,9.457559
2023-03-06T04:25:32.180Z,9.457378
2023-03-06T04:26:32.205Z,9.457258
2023-03-06T04:27:32.169Z,9.457260
2023-03-06T04:28:32.163Z,9.457277
2023-03-06T04:29:32.152Z,9.457056
2023-03-06T04:30:32.195Z,9.457091
2023-03-06T04:31:32.139Z,9.457091
2023-03-06T04:32:32.138Z,9.457091
2023-03-06T04:33:32.128Z,9.457307
2023-03-06T04:34:32.103Z,9.457341
2023-03-06T04:35:32.172Z,9.457341
2023-03-06T04:36:32.110Z,9.457341
2023-03-06T04:37:32.077Z,9.457341
2023-03-06T04:38:32.095Z,9.457341
2023-03-06T04:39:32.076Z,9.457341
2023-03-06T04:40:32.068Z,9.457341
2023-03-06T04:41:32.047Z,9.457341
2023-03-06T04:42:32.072Z,9.457080
2023-03-06T04:43:32.046Z,9.457080
2023-03-06T04:44:32.027Z,9.457080
2023-03-06T04:45:32.076Z,9.457080
2023-03-06T04:46:32.011Z,9.457080
2023-03-06T04:47:32.050Z,9.457080
2023-03-06T04:48:31.995Z,9.457080
2023-03-06T04:49:31.979Z,9.457080
2023-03-06T04:50:31.976Z,9.457080
2023-03-06T04:51:31.968Z,9.457080
2023-03-06T04:52:31.983Z,9.457080
2023-03-06T04:53:31.965Z,9.457080
2023-03-06T04:54:31.961Z,9.457080
2023-03-06T04:55:31.947Z,9.457080
2023-03-06T04:56:31.961Z,9.457080
2023-03-06T04:57:31.958Z,9.457080
2023-03-06T04:58:31.929Z,9.457080
2023-03-06T04:59:31.922Z,9.457080
2023-03-06T05:00:31.924Z,9.457080
2023-03-06T05:01:31.903Z,9.457080
2023-03-06T05:02:31.957Z,9.457080
2023-03-06T05:03:31.871Z,9.457080
2023-03-06T05:04:31.867Z,9.456946
2023-03-06T05:05:31.868Z,9.456981
2023-03-06T05:06:31.852Z,9.457013
2023-03-06T05:07:31.879Z,9.457004
2023-03-06T05:08:31.835Z,9.456983
2023-03-06T05:09:31.826Z,9.457014
2023-03-06T05:10:31.852Z,9.456977
2023-03-06T05:11:31.813Z,9.457077
2023-03-06T05:12:31.824Z,9.457227
2023-03-06T05:13:31.800Z,9.456880
2023-03-06T05:14:31.784Z,9.456718
2023-03-06T05:15:31.792Z,9.456660
2023-03-06T05:16:31.792Z,9.456660
2023-03-06T05:17:31.778Z,9.456660
2023-03-06T05:18:31.764Z,9.456660
2023-03-06T05:19:31.739Z,9.456660
2023-03-06T05:20:31.780Z,9.456660
2023-03-06T05:21:31.730Z,9.456660
2023-03-06T05:22:31.745Z,9.456660
2023-03-06T05:23:31.718Z,9.456660
2023-03-06T05:24:31.743Z,9.456660
2023-03-06T05:25:31.702Z,9.456588
2023-03-06T05:26:31.696Z,9.456698
2023-03-06T05:27:31.704Z,9.456827
2023-03-06T05:28:31.684Z,9.456987
2023-03-06T05:29:31.675Z,9.457071
2023-03-06T05:30:31.668Z,9.457222
2023-03-06T05:31:31.715Z,9.457222
2023-03-06T05:32:33.324Z,9.457225
2023-03-06T05:33:31.654Z,9.457217
2023-03-06T05:34:31.628Z,9.457169
2023-03-06T05:35:31.635Z,9.457221
2023-03-06T05:36:31.640Z,9.457315
2023-03-06T05:37:31.648Z,9.457281
2023-03-06T05:38:31.605Z,9.457172
2023-03-06T05:39:31.600Z,9.457245
2023-03-06T05:40:31.600Z,9.457185
2023-03-06T05:41:31.594Z,9.457185
2023-03-06T05:42:31.612Z,9.457109
2023-03-06T05:43:31.574Z,9.457105
2023-03-06T05:44:31.564Z,9.457109
2023-03-06T05:45:31.585Z,9.457050
2023-03-06T05:46:31.554Z,9.457228
2023-03-06T05:47:31.563Z,9.457297
2023-03-06T05:48:31.542Z,9.457092
2023-03-06T05:49:31.521Z,9.457253
2023-03-06T05:50:31.505Z,9.457335
2023-03-06T05:51:32.533Z,9.457290
2023-03-06T05:52:31.514Z,9.457207
2023-03-06T05:53:31.485Z,9.457242
2023-03-06T05:54:31.485Z,9.457167
2023-03-06T05:55:31.473Z,9.457178
2023-03-06T05:56:31.464Z,9.457153
2023-03-06T05:57:31.474Z,9.457045
2023-03-06T05:58:31.450Z,9.456999
2023-03-06T05:59:31.446Z,9.457116
2023-03-06T06:00:31.426Z,9.457238
2023-03-06T06:01:31.478Z,9.457255
2023-03-06T06:02:31.500Z,9.457212
2023-03-06T06:03:31.478Z,9.457223
2023-03-06T06:04:31.399Z,9.457276
2023-03-06T06:05:31.390Z,9.457212
2023-03-06T06:06:31.390Z,9.457202
2023-03-06T06:07:31.562Z,9.457385
2023-03-06T06:08:31.375Z,9.457170
2023-03-06T06:09:31.363Z,9.457212
2023-03-06T06:10:31.358Z,9.457185
2023-03-06T06:11:31.346Z,9.457216
2023-03-06T06:12:31.376Z,9.457158
2023-03-06T06:13:31.322Z,9.457180
2023-03-06T06:14:31.315Z,9.457194
2023-03-06T06:15:31.360Z,9.457286
2023-03-06T06:16:31.306Z,9.457355
2023-03-06T06:17:31.325Z,9.457268
2023-03-06T06:18:31.287Z,9.457138
2023-03-06T06:19:31.278Z,9.457236
2023-03-06T06:20:31.269Z,9.457259
2023-03-06T06:21:31.272Z,9.457215
2023-03-06T06:22:31.272Z,9.457315
2023-03-06T06:23:31.245Z,9.457152
2023-03-06T06:24:31.239Z,9.457182
2023-03-06T06:25:31.230Z,9.457206
2023-03-06T06:26:31.218Z,9.457335
2023-03-06T06:27:31.236Z,9.457308
2023-03-06T06:28:31.217Z,9.457143
2023-03-06T06:29:31.207Z,9.457106
2023-03-06T06:30:31.210Z,9.457118
2023-03-06T06:31:31.300Z,9.457145
2023-03-06T06:32:31.283Z,9.457140
2023-03-06T06:33:31.207Z,9.457278
2023-03-06T06:34:31.166Z,9.457210
2023-03-06T06:35:31.196Z,9.457064
2023-03-06T06:36:31.149Z,9.457097
2023-03-06T06:37:31.159Z,9.457217
2023-03-06T06:38:31.135Z,9.457219
2023-03-06T06:39:31.125Z,9.457108
2023-03-06T06:40:31.122Z,9.457019
2023-03-06T06:41:46.664Z,9.457163
2023-03-06T06:42:38.259Z,9.457170
2023-03-06T06:43:33.093Z,9.457053
2023-03-06T06:44:31.090Z,9.457115
2023-03-06T06:45:31.082Z,9.457227
2023-03-06T06:47:19.312Z,9.457178
2023-03-06T06:47:33.128Z,9.457172
2023-03-06T06:48:31.052Z,9.457157
2023-03-06T06:49:31.046Z,9.457208
2023-03-06T06:50:31.035Z,9.457006
2023-03-06T06:51:31.032Z,9.457086
2023-03-06T06:52:31.038Z,9.457016
2023-03-06T06:53:31.018Z,9.457078
2023-03-06T06:54:31.020Z,9.457122
2023-03-06T06:55:31.006Z,9.457183
2023-03-06T06:56:31.013Z,9.457320
2023-03-06T06:57:31.002Z,9.457390
2023-03-06T06:58:30.984Z,9.457262
2023-03-06T06:59:30.963Z,9.457171
2023-03-06T07:00:30.960Z,9.457038
2023-03-06T07:01:31.002Z,9.457308
2023-03-06T07:02:30.965Z,9.457062
2023-03-06T07:03:30.968Z,9.457121
2023-03-06T07:04:30.934Z,9.457214
2023-03-06T07:05:30.913Z,9.457275
2023-03-06T07:06:30.910Z,9.457207
2023-03-06T07:07:30.927Z,9.457187
2023-03-06T07:08:30.889Z,9.457129
2023-03-06T07:09:30.933Z,9.457164
2023-03-06T07:10:30.878Z,9.457188
2023-03-06T07:11:30.873Z,9.457232
2023-03-06T07:12:30.894Z,9.457214
2023-03-06T07:13:30.852Z,9.457328
2023-03-06T07:14:30.847Z,9.457178
2023-03-06T07:15:30.856Z,9.457147
2023-03-06T07:16:30.840Z,9.457136
2023-03-06T07:17:30.860Z,9.457217
2023-03-06T07:18:30.806Z,9.457152
2023-03-06T07:19:30.809Z,9.457285
2023-03-06T07:20:30.806Z,9.457285
2023-03-06T07:21:30.790Z,9.457190
2023-03-06T07:22:38.720Z,9.457122
2023-03-06T07:23:32.775Z,9.457197
2023-03-06T07:24:30.771Z,9.457340
2023-03-06T07:25:30.775Z,9.457236
2023-03-06T07:26:32.768Z,9.457127
2023-03-06T07:27:30.819Z,9.457104
2023-03-06T07:28:37.616Z,9.457234
2023-03-06T07:29:31.729Z,9.457232
2023-03-06T07:30:30.725Z,9.457369
2023-03-06T07:31:30.792Z,9.457407
2023-03-06T07:32:30.780Z,9.457389
2023-03-06T07:33:30.687Z,9.457300
2023-03-06T07:34:30.683Z,9.457291
2023-03-06T07:35:30.752Z,9.457167
2023-03-06T07:36:30.668Z,9.457135
2023-03-06T07:37:30.666Z,9.457177
2023-03-06T07:38:30.640Z,9.457216
2023-03-06T07:39:30.655Z,9.457276
2023-03-06T07:40:30.626Z,9.457309
2023-03-06T07:41:30.614Z,9.457395
2023-03-06T07:42:30.622Z,9.457246
2023-03-06T07:43:30.603Z,9.457261
2023-03-06T07:44:30.586Z,9.457306
2023-03-06T07:45:30.574Z,9.457218
2023-03-06T07:46:30.614Z,9.457281
2023-03-06T07:47:30.578Z,9.457182
2023-03-06T07:48:30.560Z,9.457217
2023-03-06T07:49:30.539Z,9.457324
2023-03-06T07:50:30.529Z,9.457238
2023-03-06T07:51:30.543Z,9.457082
2023-03-06T07:52:30.526Z,9.457134
2023-03-06T07:53:30.502Z,9.457055
2023-03-06T07:54:30.500Z,9.457088
2023-03-06T07:55:30.483Z,9.457157
2023-03-06T07:56:30.485Z,9.457292
2023-03-06T07:57:30.507Z,9.457288
2023-03-06T07:58:30.455Z,9.457241
2023-03-06T07:59:30.484Z,9.457331
2023-03-06T08:00:30.457Z,9.457397
2023-03-06T08:01:30.439Z,9.457346
2023-03-06T08:02:30.438Z,9.457404
2023-03-06T08:03:30.505Z,9.457439
2023-03-06T08:04:30.397Z,9.457399
2023-03-06T08:05:30.421Z,9.457376
2023-03-06T08:06:30.398Z,9.457380
2023-03-06T08:07:30.383Z,9.457388
2023-03-06T08:08:30.406Z,9.457231
2023-03-06T08:09:30.452Z,9.457305
2023-03-06T08:10:30.389Z,9.457428
2023-03-06T08:11:30.335Z,9.457332
2023-03-06T08:12:30.316Z,9.457238
2023-03-06T08:13:30.341Z,9.457246
2023-03-06T08:14:30.357Z,9.457379
2023-03-06T08:15:30.284Z,9.457396
2023-03-06T08:16:30.330Z,9.457145
2023-03-06T08:17:30.305Z,9.457130
2023-03-06T08:18:30.273Z,9.457223
2023-03-06T08:19:30.253Z,9.457214
2023-03-06T08:20:30.239Z,9.457385
2023-03-06T08:21:30.231Z,9.457320
2023-03-06T08:22:30.227Z,9.457265
2023-03-06T08:23:30.250Z,9.457211
2023-03-06T08:24:30.219Z,9.457306
2023-03-06T08:25:30.182Z,9.457220
2023-03-06T08:26:30.188Z,9.457258
2023-03-06T08:27:30.173Z,9.457246
2023-03-06T08:28:30.173Z,9.457282
2023-03-06T08:29:31.552Z,9.457243
2023-03-06T08:30:30.138Z,9.457202
2023-03-06T08:31:30.232Z,9.457238
2023-03-06T08:32:30.140Z,9.457264
2023-03-06T08:33:30.150Z,9.457305
2023-03-06T08:34:30.091Z,9.457319
2023-03-06T08:35:30.121Z,9.457246
2023-03-06T08:36:30.070Z,9.457295
2023-03-06T08:37:30.149Z,9.457406
2023-03-06T08:38:30.085Z,9.457357
2023-03-06T08:39:30.037Z,9.457184
2023-03-06T08:40:30.031Z,9.457239
2023-03-06T08:41:30.018Z,9.457313
2023-03-06T08:42:30.015Z,9.457389
2023-03-06T08:43:30.029Z,9.457368
2023-03-06T08:44:30.042Z,9.457311
2023-03-06T08:45:30.005Z,9.457278
2023-03-06T08:46:29.955Z,9.457248
2023-03-06T08:47:29.955Z,9.457308
2023-03-06T08:48:29.978Z,9.457262
2023-03-06T08:49:30.803Z,9.457215
2023-03-06T08:50:29.956Z,9.457293
2023-03-06T08:51:30.926Z,9.457307
2023-03-06T08:52:29.896Z,9.457394
2023-03-06T08:53:42.213Z,9.457352
2023-03-06T08:54:31.881Z,9.457399
2023-03-06T08:55:29.865Z,9.457240
2023-03-06T08:56:29.850Z,9.457160
2023-03-06T08:57:29.836Z,9.457122
2023-03-06T08:58:29.855Z,9.457207
2023-03-06T08:59:29.818Z,9.457145
2023-03-06T09:00:29.840Z,9.457254
2023-03-06T09:01:29.887Z,9.457251
2023-03-06T09:02:30.683Z,9.457453
2023-03-06T09:03:29.980Z,9.457343
2023-03-06T09:04:29.754Z,9.457272
2023-03-06T09:05:29.756Z,9.457143
2023-03-06T09:06:29.737Z,9.457231
2023-03-06T09:07:29.725Z,9.457119
2023-03-06T09:08:29.730Z,9.457146
2023-03-06T09:09:29.708Z,9.457247
2023-03-06T09:10:29.714Z,9.457261
2023-03-06T09:11:30.699Z,9.457169
2023-03-06T09:12:32.647Z,9.457147
2023-03-06T09:13:30.661Z,9.457534
2023-03-06T09:34:53.441Z,9.457674
2023-03-06T09:35:53.487Z,9.456985
2023-03-06T09:36:57.268Z,9.456771
2023-03-06T09:37:54.382Z,9.456779
2023-03-06T09:38:53.403Z,9.457411
2023-03-06T09:39:53.367Z,9.457466
2023-03-06T09:40:53.362Z,9.457604
2023-03-06T09:41:53.383Z,9.457553
2023-03-06T09:42:53.332Z,9.457753
2023-03-06T09:43:53.348Z,9.457563
2023-03-06T09:44:53.301Z,9.457643
2023-03-06T09:45:53.328Z,9.457735
2023-03-06T09:46:53.297Z,9.457637
2023-03-06T09:47:53.304Z,9.457754
2023-03-06T09:48:53.281Z,9.457715
2023-03-06T09:49:53.252Z,9.457911
2023-03-06T09:50:53.253Z,9.457780
2023-03-06T09:51:53.231Z,9.457740
2023-03-06T09:52:53.217Z,9.457531
2023-03-06T09:53:53.265Z,9.457719
2023-03-06T09:54:53.197Z,9.457974
2023-03-06T09:55:53.174Z,9.457719
2023-03-06T09:56:53.169Z,9.457728
2023-03-06T09:57:53.169Z,9.457652
2023-03-06T09:58:53.166Z,9.457620
2023-03-06T09:59:53.144Z,9.457776
2023-03-06T10:00:53.135Z,9.458104
2023-03-06T10:01:53.106Z,9.457825
2023-03-06T10:02:53.242Z,9.457697
2023-03-06T10:03:53.100Z,9.457780
2023-03-06T10:04:53.148Z,9.457809
2023-03-06T10:05:53.068Z,9.457599
2023-03-06T10:06:53.058Z,9.457602
2023-03-06T10:07:53.064Z,9.457672
2023-03-06T10:08:53.043Z,9.457218
2023-03-06T10:09:53.033Z,9.457238
2023-03-06T10:11:25.422Z,9.457276
2023-03-06T10:11:53.008Z,9.457320
2023-03-06T10:12:53.003Z,9.457274
2023-03-06T10:13:52.999Z,9.457310
2023-03-06T10:14:53.005Z,9.457272
2023-03-06T10:15:52.968Z,9.457234
2023-03-06T10:16:52.937Z,9.457408
2023-03-06T10:17:53.942Z,9.457220
2023-03-06T10:18:52.980Z,9.457122
2023-03-06T10:19:52.934Z,9.457270
2023-03-06T10:20:52.926Z,9.457469
2023-03-06T10:21:52.889Z,9.457342
2023-03-06T10:23:00.607Z,9.457399
2023-03-06T10:23:54.907Z,9.457471
2023-03-06T10:24:52.853Z,9.457238
2023-03-06T10:25:52.855Z,9.457400
2023-03-06T10:26:52.959Z,9.457526
2023-03-06T10:27:52.840Z,9.457449
2023-03-06T10:28:52.881Z,9.457470
2023-03-06T10:30:02.204Z,9.457359
2023-03-06T10:30:54.831Z,9.457614
2023-03-06T10:31:52.780Z,9.457619
2023-03-06T10:32:52.794Z,9.457798
2023-03-06T10:33:52.775Z,9.457905
2023-03-06T10:34:52.745Z,9.457333
2023-03-06T10:35:52.774Z,9.457338
2023-03-06T10:36:52.755Z,9.457509
2023-03-06T10:37:52.710Z,9.457384
2023-03-06T10:38:52.752Z,9.457537
2023-03-06T10:39:52.704Z,9.457426
2023-03-06T10:40:52.685Z,9.457397
2023-03-06T10:41:52.670Z,9.457461
2023-03-06T10:43:09.387Z,9.457362
2023-03-06T10:43:54.666Z,9.457284
2023-03-06T10:44:52.634Z,9.457264
2023-03-06T10:45:52.631Z,9.457397
2023-03-06T10:46:52.665Z,9.457263
2023-03-06T10:47:52.628Z,9.457369
2023-03-06T10:48:52.608Z,9.457543
2023-03-06T10:49:52.569Z,9.457462
2023-03-06T10:50:53.579Z,9.457652
2023-03-06T10:51:52.586Z,9.457280
2023-03-06T10:52:52.547Z,9.457627
2023-03-06T10:53:52.572Z,9.457631
2023-03-06T10:54:52.563Z,9.457808
2023-03-06T10:55:52.518Z,9.457709
2023-03-06T10:56:52.504Z,9.457475
2023-03-06T10:57:52.505Z,9.457480
2023-03-06T10:58:52.496Z,9.457470
2023-03-06T10:59:52.478Z,9.457676
2023-03-06T11:00:52.616Z,9.457507
2023-03-06T11:01:52.506Z,9.457460
2023-03-06T11:02:52.428Z,9.457397
2023-03-06T11:03:52.451Z,9.457489
2023-03-06T11:04:52.525Z,9.457523
2023-03-06T11:05:52.403Z,9.457498
2023-03-06T11:06:52.395Z,9.457601
2023-03-06T11:07:52.385Z,9.457600
2023-03-06T11:08:52.386Z,9.457535
2023-03-06T11:09:52.365Z,9.457642
2023-03-06T11:10:53.168Z,9.457588
2023-03-06T11:11:52.335Z,9.457730
2023-03-06T11:12:52.321Z,9.457798
2023-03-06T11:13:52.391Z,9.457578
2023-03-06T11:14:52.318Z,9.457548
2023-03-06T11:15:52.301Z,9.457458
2023-03-06T11:16:52.282Z,9.457434
2023-03-06T11:17:52.284Z,9.457722
2023-03-06T11:18:52.284Z,9.457703
2023-03-06T11:19:52.288Z,9.457625
2023-03-06T11:20:53.221Z,9.457449
2023-03-06T11:21:53.230Z,9.457252
2023-03-06T11:22:52.229Z,9.457417
2023-03-06T11:23:52.246Z,9.457561
2023-03-06T11:24:52.195Z,9.457469
2023-03-06T11:25:52.190Z,9.457499
2023-03-06T11:26:52.191Z,9.457516
2023-03-06T11:27:52.169Z,9.457497
2023-03-06T11:28:52.170Z,9.457440
2023-03-06T11:29:52.175Z,9.457429
2023-03-06T11:30:52.133Z,9.457435
2023-03-06T11:31:52.115Z,9.457447
2023-03-06T11:32:52.124Z,9.457387
2023-03-06T11:33:52.101Z,9.457372
2023-03-06T11:34:52.159Z,9.457397
2023-03-06T11:35:52.118Z,9.457398
2023-03-06T11:36:52.058Z,9.457498
2023-03-06T11:37:52.068Z,9.457477
2023-03-06T11:38:52.057Z,9.457388
2023-03-06T11:39:52.051Z,9.457506
2023-03-06T11:40:52.012Z,9.457390
2023-03-06T11:41:52.007Z,9.457418
2023-03-06T11:42:51.996Z,9.457346
2023-03-06T11:43:51.988Z,9.457454
2023-03-06T11:44:52.031Z,9.457391
2023-03-06T11:45:51.970Z,9.457582
2023-03-06T11:46:51.971Z,9.457377
2023-03-06T11:47:51.952Z,9.457372
2023-03-06T11:48:51.931Z,9.457375
2023-03-06T11:49:51.947Z,9.457352
2023-03-06T11:50:51.913Z,9.457491
2023-03-06T11:51:51.905Z,9.457412
2023-03-06T11:52:51.897Z,9.457303
2023-03-06T11:53:51.874Z,9.457275
2023-03-06T11:54:51.870Z,9.457454
2023-03-06T11:55:51.906Z,9.457356
2023-03-06T11:56:51.849Z,9.457452
2023-03-06T11:57:51.836Z,9.457343
2023-03-06T11:58:51.836Z,9.457283
2023-03-06T11:59:51.832Z,9.457365
2023-03-06T12:00:51.808Z,9.457328
2023-03-06T12:01:51.805Z,9.457343
2023-03-06T12:02:51.782Z,9.457258
2023-03-06T12:03:51.774Z,9.457288
2023-03-06T12:04:51.863Z,9.457315
2023-03-06T12:05:51.774Z,9.457291
2023-03-06T12:06:51.757Z,9.457240
2023-03-06T12:07:51.733Z,9.457207
2023-03-06T12:08:51.736Z,9.457287
2023-03-06T12:09:51.737Z,9.457151
2023-03-06T12:10:52.239Z,9.457215
2023-03-06T12:11:51.713Z,9.457199
2023-03-06T12:12:51.694Z,9.457383
2023-03-06T12:14:52.711Z,9.457184